createdAt,value
2018-12-15T00:01:53.253Z,2.50
2018-12-15T00:04:20.782Z,2.60
2018-12-15T00:06:48.456Z,2.70
2018-12-15T00:11:43.475Z,2.50
2018-12-15T00:14:11.126Z,2.50
2018-12-15T00:16:39.969Z,2.30
2018-12-15T00:19:07.729Z,2.50
2018-12-15T00:21:35.288Z,2.00
2018-12-15T00:26:30.452Z,3.20
2018-12-15T00:28:57.985Z,2.40
2018-12-15T00:31:25.602Z,2.50
2018-12-15T00:33:53.936Z,2.30
2018-12-15T00:36:21.488Z,2.60
2018-12-15T00:38:48.923Z,2.40
2018-12-15T00:41:16.391Z,2.20
2018-12-15T00:43:43.910Z,1.90
2018-12-15T00:48:38.798Z,2.80
2018-12-15T00:51:06.361Z,2.30
2018-12-15T00:56:01.292Z,2.20
2018-12-15T01:01:03.815Z,2.30
2018-12-15T01:03:31.389Z,2.40
2018-12-15T01:05:59.126Z,3.10
2018-12-15T01:08:26.724Z,2.40
2018-12-15T01:10:55.266Z,2.30
2018-12-15T01:13:22.865Z,2.40
2018-12-15T01:18:17.950Z,2.30
2018-12-15T01:23:16.414Z,2.60
2018-12-15T01:30:39.014Z,2.70
2018-12-15T01:35:33.975Z,2.80
2018-12-15T01:38:02.032Z,2.70
2018-12-15T01:40:31.835Z,2.40
2018-12-15T01:47:54.206Z,2.50
2018-12-15T01:50:21.767Z,2.40
2018-12-15T01:52:49.743Z,2.40
2018-12-15T01:55:18.188Z,2.40
2018-12-15T01:57:46.251Z,2.40
2018-12-15T02:00:14.451Z,2.40
2018-12-15T02:05:09.415Z,2.40
2018-12-15T02:07:37.008Z,2.40
2018-12-15T02:10:05.432Z,2.30
2018-12-15T02:12:32.960Z,2.20
2018-12-15T02:15:00.509Z,2.40
2018-12-15T02:17:33.416Z,2.30
2018-12-15T02:19:57.845Z,2.40
2018-12-15T02:22:25.306Z,2.40
2018-12-15T02:24:52.891Z,2.50
2018-12-15T02:27:20.488Z,2.40
2018-12-15T02:29:48.266Z,2.40
2018-12-15T02:34:44.856Z,2.40
2018-12-15T02:37:12.551Z,2.40
2018-12-15T02:39:40.562Z,2.30
2018-12-15T02:44:35.723Z,2.40
2018-12-15T02:47:03.442Z,2.00
2018-12-15T02:49:32.145Z,2.30
2018-12-15T02:51:59.645Z,2.60
2018-12-15T02:56:54.794Z,2.50
2018-12-15T02:59:24.132Z,2.50
2018-12-15T03:01:51.608Z,2.30
2018-12-15T03:11:41.914Z,2.50
2018-12-15T03:16:36.908Z,2.40
2018-12-15T03:19:11.683Z,2.40
2018-12-15T03:24:07.667Z,2.60
2018-12-15T03:26:35.100Z,2.90
2018-12-15T03:29:02.559Z,2.60
2018-12-15T03:31:30.398Z,2.20
2018-12-15T03:33:58.327Z,2.70
2018-12-15T03:36:26.676Z,2.50
2018-12-15T03:38:54.123Z,2.50
2018-12-15T03:41:22.293Z,2.70
2018-12-15T03:43:50.463Z,2.50
2018-12-15T03:46:17.965Z,2.50
2018-12-15T03:48:45.467Z,2.50
2018-12-15T03:53:41.344Z,2.80
2018-12-15T03:56:09.341Z,2.70
2018-12-15T03:58:36.844Z,2.30
2018-12-15T04:01:05.032Z,2.50
2018-12-15T04:03:32.501Z,3.80
2018-12-15T04:06:00.600Z,2.50
2018-12-15T04:13:22.850Z,2.60
2018-12-15T04:15:50.831Z,2.60
2018-12-15T04:18:18.453Z,2.50
2018-12-15T04:20:46.093Z,2.50
2018-12-15T04:23:13.697Z,2.60
2018-12-15T04:25:41.393Z,2.40
2018-12-15T04:28:08.974Z,2.50
2018-12-15T04:30:36.636Z,2.00
2018-12-15T04:33:04.282Z,2.50
2018-12-15T04:35:31.839Z,2.40
2018-12-15T04:37:59.313Z,2.30
2018-12-15T04:50:21.281Z,2.20
2018-12-15T04:52:49.408Z,2.30
2018-12-15T04:57:51.527Z,2.40
2018-12-15T05:00:19.061Z,2.30
2018-12-15T05:02:47.039Z,2.50
2018-12-15T05:05:15.140Z,2.30
2018-12-15T05:07:42.687Z,2.40
2018-12-15T05:10:10.203Z,2.20
2018-12-15T05:12:37.716Z,2.30
2018-12-15T05:15:05.450Z,2.30
2018-12-15T05:17:33.027Z,2.30
2018-12-15T05:22:27.944Z,2.30
2018-12-15T05:24:55.594Z,2.40
2018-12-15T05:27:23.205Z,2.40
2018-12-15T05:32:19.330Z,2.40
2018-12-15T05:37:14.179Z,2.50
2018-12-15T05:39:41.759Z,2.40
2018-12-15T05:42:09.251Z,2.50
2018-12-15T05:44:36.750Z,2.50
2018-12-15T05:47:04.173Z,2.40
2018-12-15T05:49:31.711Z,2.40
2018-12-15T05:54:26.716Z,2.70
2018-12-15T05:56:54.166Z,2.40
2018-12-15T05:59:21.687Z,2.60
2018-12-15T06:01:49.208Z,2.40
2018-12-15T06:04:16.849Z,2.40
2018-12-15T06:06:44.502Z,2.30
2018-12-15T06:09:11.927Z,2.40
2018-12-15T06:11:39.497Z,2.40
2018-12-15T06:14:06.980Z,2.40
2018-12-15T06:16:34.435Z,2.30
2018-12-15T06:19:02.067Z,2.30
2018-12-15T06:21:29.516Z,2.30
2018-12-15T06:23:57.190Z,2.30
2018-12-15T06:26:24.766Z,2.30
2018-12-15T06:28:52.788Z,2.30
2018-12-15T06:31:21.039Z,2.30
2018-12-15T06:33:48.602Z,2.30
2018-12-15T06:38:43.447Z,2.30
2018-12-15T06:41:11.526Z,2.40
2018-12-15T06:43:39.366Z,2.40
2018-12-15T06:46:07.402Z,2.40
2018-12-15T06:48:38.125Z,2.40
2018-12-15T06:53:32.850Z,2.40
2018-12-15T06:56:00.421Z,2.40
2018-12-15T06:58:27.942Z,2.40
2018-12-15T07:00:55.478Z,2.40
2018-12-15T07:03:23.026Z,2.40
2018-12-15T07:05:50.648Z,2.40
2018-12-15T07:08:18.814Z,2.40
2018-12-15T07:10:46.311Z,2.40
2018-12-15T07:13:14.463Z,2.40
2018-12-15T07:15:42.200Z,2.40
2018-12-15T07:18:09.643Z,2.30
2018-12-15T07:20:37.905Z,2.30
2018-12-15T07:23:07.553Z,2.40
2018-12-15T07:25:36.053Z,2.30
2018-12-15T07:28:05.853Z,2.20
2018-12-15T07:30:33.672Z,2.20
2018-12-15T07:33:01.256Z,2.20
2018-12-15T07:35:28.873Z,2.30
2018-12-15T07:37:56.382Z,2.40
2018-12-15T07:40:24.870Z,2.30
2018-12-15T07:42:53.743Z,2.30
2018-12-15T07:45:21.276Z,2.20
2018-12-15T07:52:45.519Z,2.20
2018-12-15T07:55:13.128Z,2.20
2018-12-15T07:57:40.628Z,2.10
2018-12-15T08:02:36.419Z,2.20
2018-12-15T08:05:05.028Z,2.30
2018-12-15T08:07:32.543Z,2.30
2018-12-15T08:10:04.432Z,2.30
2018-12-15T08:15:06.616Z,2.10
2018-12-15T08:17:34.160Z,2.20
2018-12-15T08:24:56.536Z,2.40
2018-12-15T08:27:24.153Z,2.30
2018-12-15T08:29:52.296Z,2.30
2018-12-15T08:34:47.703Z,2.40
2018-12-15T08:37:15.562Z,2.30
2018-12-15T08:42:10.787Z,2.30
2018-12-15T08:44:38.491Z,2.30
2018-12-15T08:47:06.986Z,2.30
2018-12-15T08:52:02.343Z,2.30
2018-12-15T08:54:29.940Z,2.30
2018-12-15T08:56:57.732Z,2.20
2018-12-15T08:59:25.921Z,2.20
2018-12-15T09:01:53.586Z,2.20
2018-12-15T09:04:21.108Z,2.30
2018-12-15T09:06:48.754Z,2.30
2018-12-15T09:09:16.268Z,2.40
2018-12-15T09:11:43.755Z,2.40
2018-12-15T09:14:11.269Z,2.50
2018-12-15T09:16:38.916Z,2.50
2018-12-15T09:19:11.188Z,2.60
2018-12-15T09:21:36.762Z,2.50
2018-12-15T09:24:05.779Z,2.50
2018-12-15T09:26:33.220Z,2.50
2018-12-15T09:29:00.768Z,2.40
2018-12-15T09:36:27.639Z,2.50
2018-12-15T09:38:55.121Z,2.50
2018-12-15T09:43:51.021Z,2.50
2018-12-15T09:46:18.683Z,2.50
2018-12-15T09:48:46.210Z,2.50
2018-12-15T09:51:13.693Z,2.40
2018-12-15T09:53:41.360Z,2.40
2018-12-15T09:56:09.010Z,2.40
2018-12-15T09:58:37.305Z,2.50
2018-12-15T10:01:05.061Z,2.60
2018-12-15T10:03:32.796Z,2.60
2018-12-15T10:06:00.656Z,2.50
2018-12-15T10:08:28.171Z,2.40
2018-12-15T10:10:55.715Z,2.40
2018-12-15T10:13:23.281Z,2.40
2018-12-15T10:15:50.915Z,2.40
2018-12-15T10:18:18.513Z,2.40
2018-12-15T10:20:46.114Z,2.40
2018-12-15T10:23:13.542Z,2.40
2018-12-15T10:25:41.640Z,2.40
2018-12-15T10:28:09.130Z,2.50
2018-12-15T10:30:42.366Z,2.50
2018-12-15T10:33:09.962Z,2.60
2018-12-15T10:35:37.589Z,2.60
2018-12-15T10:38:05.109Z,2.60
2018-12-15T10:40:32.643Z,2.70
2018-12-15T10:45:41.709Z,2.60
2018-12-15T10:48:09.415Z,2.70
2018-12-15T10:50:37.035Z,2.70
2018-12-15T10:53:06.761Z,2.70
2018-12-15T11:05:51.777Z,2.60
2018-12-15T11:10:53.258Z,2.60
2018-12-15T11:15:48.468Z,2.60
2018-12-15T11:35:42.699Z,2.80
2018-12-15T11:49:29.828Z,2.70
2018-12-15T11:51:58.618Z,2.60
2018-12-15T11:54:26.816Z,2.60
2018-12-15T11:56:55.888Z,2.60
2018-12-15T11:59:23.427Z,2.60
2018-12-15T12:04:20.233Z,2.70
2018-12-15T12:06:48.171Z,2.70
2018-12-15T12:11:50.627Z,2.70
2018-12-15T12:14:18.578Z,2.80
2018-12-15T12:19:19.762Z,2.60
2018-12-15T12:26:44.463Z,2.60
2018-12-15T12:34:07.664Z,2.50
2018-12-15T12:36:35.302Z,2.60
2018-12-15T12:39:04.622Z,2.60
2018-12-15T12:41:32.933Z,2.60
2018-12-15T12:46:29.179Z,2.60
2018-12-15T12:49:01.281Z,2.60
2018-12-15T12:51:30.204Z,2.70
2018-12-15T12:53:59.090Z,2.60
2018-12-15T12:58:54.203Z,2.60
2018-12-15T13:01:22.043Z,2.50
2018-12-15T13:03:49.837Z,2.60
2018-12-15T13:06:18.226Z,2.60
2018-12-15T13:13:40.956Z,2.70
2018-12-15T13:16:09.650Z,2.60
2018-12-15T13:18:37.277Z,2.70
2018-12-15T13:21:05.045Z,2.60
2018-12-15T13:33:33.412Z,2.60
2018-12-15T13:36:01.155Z,2.60
2018-12-15T13:38:29.767Z,2.60
2018-12-15T13:41:02.212Z,2.70
2018-12-15T13:43:31.872Z,2.70
2018-12-15T13:48:28.587Z,2.60
2018-12-15T13:50:56.127Z,2.60
2018-12-15T13:53:23.664Z,2.60
2018-12-15T13:55:51.618Z,2.60
2018-12-15T13:58:19.215Z,2.60
2018-12-15T14:00:46.732Z,2.60
2018-12-15T14:15:40.162Z,2.70
2018-12-15T14:18:09.766Z,2.60
2018-12-15T14:20:44.583Z,2.70
2018-12-15T14:23:21.756Z,2.50
2018-12-15T14:25:50.407Z,2.50
2018-12-15T14:28:18.233Z,2.40
2018-12-15T14:30:46.607Z,2.30
2018-12-15T14:38:14.444Z,2.30
2018-12-15T14:40:47.811Z,2.30
2018-12-15T14:43:18.883Z,2.40
2018-12-15T14:45:48.016Z,2.50
2018-12-15T14:53:14.419Z,2.40
2018-12-15T14:55:42.593Z,2.50
2018-12-15T14:58:10.786Z,2.50
2018-12-15T15:00:38.384Z,2.50
2018-12-15T15:05:37.010Z,2.40
2018-12-15T15:08:08.303Z,2.40
2018-12-15T15:10:39.365Z,2.40
2018-12-15T15:13:07.993Z,2.30
2018-12-15T15:18:23.287Z,2.40
2018-12-15T15:23:21.403Z,2.30
2018-12-15T15:30:45.374Z,2.20
2018-12-15T15:35:40.822Z,2.40
2018-12-15T15:40:37.009Z,2.50
2018-12-15T15:48:00.001Z,2.30
2018-12-15T15:50:29.563Z,2.30
2018-12-15T15:52:57.655Z,2.30
2018-12-15T16:02:57.496Z,2.30
2018-12-15T16:05:25.909Z,2.20
2018-12-15T16:07:55.337Z,2.20
2018-12-15T16:10:25.252Z,2.40
2018-12-15T16:15:26.970Z,2.20
2018-12-15T16:17:56.050Z,2.40
2018-12-15T16:20:26.777Z,2.40
2018-12-15T16:25:23.510Z,2.40
2018-12-15T16:27:51.097Z,2.30
2018-12-15T16:30:18.692Z,2.30
2018-12-15T16:35:14.118Z,2.30
2018-12-15T16:37:41.667Z,2.30
2018-12-15T16:40:09.372Z,2.30
2018-12-15T16:45:10.868Z,2.20
2018-12-15T16:47:38.531Z,2.10
2018-12-15T16:52:37.945Z,2.30
2018-12-15T16:55:07.806Z,2.30
2018-12-15T16:57:37.334Z,2.50
2018-12-15T17:02:39.163Z,2.40
2018-12-15T17:05:08.291Z,2.20
2018-12-15T17:12:33.451Z,2.40
2018-12-15T17:17:30.024Z,2.30
2018-12-15T17:27:29.141Z,2.20
2018-12-15T17:37:20.317Z,2.00
2018-12-15T17:39:47.870Z,2.10
2018-12-15T17:44:43.782Z,2.20
2018-12-15T17:47:12.440Z,2.10
2018-12-15T17:49:40.051Z,2.20
2018-12-15T17:52:07.821Z,2.10
2018-12-15T17:59:31.879Z,2.10
2018-12-15T18:02:03.397Z,2.30
2018-12-15T18:04:31.018Z,2.20
2018-12-15T18:09:26.059Z,2.30
2018-12-15T18:14:21.193Z,2.00
2018-12-15T18:19:17.311Z,2.00
2018-12-15T18:21:44.967Z,2.10
2018-12-15T18:24:13.625Z,1.90
2018-12-15T18:26:41.192Z,2.00
2018-12-15T18:29:08.737Z,2.00
2018-12-15T18:31:36.319Z,2.00
2018-12-15T18:34:04.632Z,2.00
2018-12-15T18:36:32.254Z,1.90
2018-12-15T18:38:59.807Z,2.00
2018-12-15T18:43:54.839Z,2.10
2018-12-15T18:46:22.684Z,2.10
2018-12-15T18:48:51.148Z,2.00
2018-12-15T18:51:19.394Z,1.90
2018-12-15T18:53:47.039Z,1.90
2018-12-15T18:56:15.684Z,2.00
2018-12-15T18:58:44.872Z,2.00
2018-12-15T19:01:13.230Z,2.00
2018-12-15T19:03:49.464Z,2.00
2018-12-15T19:06:17.327Z,1.70
2018-12-15T19:08:45.693Z,1.80
2018-12-15T19:11:13.261Z,1.80
2018-12-15T19:13:40.816Z,1.90
2018-12-15T19:18:36.730Z,1.90
2018-12-15T19:23:33.165Z,1.80
2018-12-15T19:26:01.472Z,1.70
2018-12-15T19:28:29.260Z,1.70
2018-12-15T19:30:57.011Z,1.70
2018-12-15T19:33:24.743Z,1.80
2018-12-15T19:35:52.418Z,1.80
2018-12-15T19:38:21.484Z,1.80
2018-12-15T19:40:49.031Z,1.90
2018-12-15T19:43:17.363Z,1.80
2018-12-15T19:45:45.095Z,1.90
2018-12-15T19:50:41.274Z,1.90
2018-12-15T19:53:08.861Z,1.90
2018-12-15T19:55:36.571Z,1.80
2018-12-15T19:58:04.849Z,1.70
2018-12-15T20:00:33.512Z,1.70
2018-12-15T20:03:01.158Z,1.80
2018-12-15T20:07:56.204Z,1.90
2018-12-15T20:10:24.502Z,2.00
2018-12-15T20:12:52.681Z,1.90
2018-12-15T20:15:20.428Z,1.90
2018-12-15T20:17:48.032Z,1.80
2018-12-15T20:20:16.431Z,1.80
2018-12-15T20:22:44.707Z,1.80
2018-12-15T20:25:12.222Z,1.80
2018-12-15T20:27:39.819Z,1.80
2018-12-15T20:30:08.386Z,1.90
2018-12-15T20:32:36.110Z,1.90
2018-12-15T20:35:04.296Z,1.80
2018-12-15T20:37:32.241Z,1.90
2018-12-15T20:40:00.159Z,1.80
2018-12-15T20:42:27.691Z,1.80
2018-12-15T20:44:56.984Z,1.80
2018-12-15T20:47:27.817Z,1.70
2018-12-15T20:49:54.289Z,1.70
2018-12-15T20:52:22.041Z,1.60
2018-12-15T20:59:51.879Z,1.60
2018-12-15T21:02:31.003Z,1.60
2018-12-15T21:05:00.413Z,1.60
2018-12-15T21:12:41.237Z,1.60
2018-12-15T21:15:15.455Z,1.60
2018-12-15T21:17:45.988Z,1.60
2018-12-15T21:20:14.541Z,1.60
2018-12-15T21:22:49.131Z,1.60
2018-12-15T21:27:46.437Z,1.60
2018-12-15T21:30:16.855Z,1.70
2018-12-15T21:32:45.897Z,1.60
2018-12-15T21:35:14.235Z,1.40
2018-12-15T21:37:53.639Z,1.50
2018-12-15T21:42:51.482Z,1.40
2018-12-15T21:45:20.865Z,1.40
2018-12-15T21:50:23.365Z,1.50
2018-12-15T21:57:50.636Z,1.40
2018-12-15T22:00:20.717Z,1.50
2018-12-15T22:02:51.456Z,1.60
2018-12-15T22:05:21.403Z,1.30
2018-12-15T22:07:49.976Z,1.40
2018-12-15T22:10:20.027Z,1.40
2018-12-15T22:15:16.207Z,1.30
2018-12-15T22:20:14.717Z,1.30
2018-12-15T22:22:43.926Z,1.30
2018-12-15T22:25:11.471Z,1.40
2018-12-15T22:27:40.348Z,1.20
2018-12-15T22:30:08.977Z,1.20
2018-12-15T22:32:37.180Z,1.30
2018-12-15T22:40:02.809Z,1.00
2018-12-15T22:45:03.433Z,1.00
2018-12-15T22:59:54.769Z,1.20
2018-12-15T23:02:22.693Z,1.00
2018-12-15T23:04:50.197Z,1.10
2018-12-15T23:09:46.316Z,1.00
2018-12-15T23:12:14.399Z,1.20
2018-12-15T23:14:42.125Z,1.40
2018-12-15T23:19:37.271Z,0.80
2018-12-15T23:22:04.901Z,0.90
2018-12-15T23:24:32.574Z,1.10
2018-12-15T23:29:27.645Z,1.10
2018-12-15T23:31:55.195Z,1.00
2018-12-15T23:34:22.764Z,1.00
2018-12-15T23:41:47.218Z,1.40
2018-12-15T23:44:15.076Z,1.10
2018-12-15T23:51:40.393Z,1.00
2018-12-15T23:54:08.633Z,0.90
2018-12-15T23:59:06.662Z,0.60
